PIA452 OPSD-OPIS
Flight info
| Callsign | PIA452 |
|---|---|
| Flight time | 0h 39m |
| Altitude | 34000 |
| Route | BIREB DCT DELDA DCT KAPMI DCT BOBAM |
| Aircraft | A319/M-SDE3FGHIRWY/LB1 |
Departure
| Time | 2026-05-04 14:20 |
|---|---|
| Airport | Skardu International Airport (OPSD) |
Arrival
| Time | 2026-05-04 15:00 |
|---|---|
| Airport | Islamabad International Airport (OPIS) |
| Time | Latitude | Longitude | Altitude | Speed | Heading |
|---|---|---|---|---|---|
| 2026-05-04 14:01 | 35.33202 | 75.54336 | 7307 ft | 0 kts | 147° |
| 2026-05-04 14:13 | 35.33201 | 75.54337 | 7307 ft | 0 kts | 146° |
| 2026-05-04 14:13 | 35.33193 | 75.54343 | 7307 ft | 1 kts | 146° |
| 2026-05-04 14:14 | 35.33179 | 75.54357 | 7307 ft | 3 kts | 133° |
| 2026-05-04 14:14 | 35.33215 | 75.54481 | 7301 ft | 13 kts | 58° |
| 2026-05-04 14:14 | 35.33237 | 75.54524 | 7300 ft | 7 kts | 58° |
| 2026-05-04 14:15 | 35.33353 | 75.54624 | 7292 ft | 15 kts | 333° |
| 2026-05-04 14:15 | 35.33573 | 75.54451 | 7287 ft | 22 kts | 326° |
| 2026-05-04 14:16 | 35.33878 | 75.54205 | 7281 ft | 31 kts | 327° |
| 2026-05-04 14:16 | 35.34075 | 75.54044 | 7277 ft | 36 kts | 329° |
| 2026-05-04 14:17 | 35.34555 | 75.53665 | 7270 ft | 45 kts | 327° |
| 2026-05-04 14:17 | 35.34835 | 75.53440 | 7265 ft | 43 kts | 328° |
| 2026-05-04 14:17 | 35.35104 | 75.53233 | 7255 ft | 22 kts | 329° |
| 2026-05-04 14:18 | 35.35202 | 75.53153 | 7252 ft | 7 kts | 333° |
| 2026-05-04 14:18 | 35.35298 | 75.53097 | 7250 ft | 0 kts | 260° |
| 2026-05-04 14:19 | 35.35284 | 75.53094 | 7250 ft | 1 kts | 176° |
| 2026-05-04 14:19 | 35.35260 | 75.53101 | 7251 ft | 6 kts | 157° |
| 2026-05-04 14:19 | 35.35142 | 75.53193 | 7254 ft | 44 kts | 147° |
| 2026-05-04 14:19 | 35.34698 | 75.53549 | 7268 ft | 106 kts | 146° |
| 2026-05-04 14:20 | 35.34209 | 75.53939 | 7275 ft | 143 kts | 147° |
| 2026-05-04 14:20 | 35.32877 | 75.55003 | 7506 ft | 186 kts | 146° |
| 2026-05-04 14:20 | 35.31772 | 75.55856 | 8121 ft | 192 kts | 146° |
| 2026-05-04 14:21 | 35.29774 | 75.57416 | 9323 ft | 193 kts | 142° |
| 2026-05-04 14:21 | 35.29053 | 75.58297 | 9593 ft | 201 kts | 120° |
| 2026-05-04 14:21 | 35.28625 | 75.59966 | 9992 ft | 211 kts | 94° |
| 2026-05-04 14:22 | 35.28643 | 75.61808 | 10362 ft | 226 kts | 84° |
| 2026-05-04 14:22 | 35.28807 | 75.63803 | 10758 ft | 245 kts | 83° |
| 2026-05-04 14:22 | 35.28994 | 75.65931 | 11186 ft | 262 kts | 83° |
| 2026-05-04 14:22 | 35.29210 | 75.68206 | 11766 ft | 273 kts | 79° |
| 2026-05-04 14:23 | 35.31224 | 75.71800 | 13479 ft | 265 kts | 26° |
| 2026-05-04 14:23 | 35.32971 | 75.72423 | 14169 ft | 267 kts | 4° |
| 2026-05-04 14:23 | 35.34800 | 75.72099 | 14837 ft | 271 kts | 338° |
| 2026-05-04 14:24 | 35.36317 | 75.70792 | 15484 ft | 276 kts | 311° |
| 2026-05-04 14:24 | 35.37229 | 75.68735 | 16116 ft | 281 kts | 286° |
| 2026-05-04 14:24 | 35.37377 | 75.66316 | 16751 ft | 286 kts | 271° |
| 2026-05-04 14:24 | 35.37413 | 75.63886 | 17355 ft | 288 kts | 275° |
| 2026-05-04 14:25 | 35.37500 | 75.61434 | 17952 ft | 291 kts | 275° |
| 2026-05-04 14:25 | 35.37942 | 75.56534 | 19121 ft | 292 kts | 288° |
| 2026-05-04 14:25 | 35.38616 | 75.54205 | 19690 ft | 291 kts | 298° |
| 2026-05-04 14:26 | 35.39628 | 75.52087 | 20234 ft | 291 kts | 309° |
| 2026-05-04 14:26 | 35.40925 | 75.50157 | 20704 ft | 295 kts | 313° |
| 2026-05-04 14:26 | 35.42422 | 75.48397 | 20928 ft | 307 kts | 323° |
| 2026-05-04 14:26 | 35.44140 | 75.46788 | 21164 ft | 319 kts | 324° |
| 2026-05-04 14:27 | 35.45949 | 75.45109 | 21398 ft | 332 kts | 323° |
| 2026-05-04 14:27 | 35.47801 | 75.43355 | 21628 ft | 345 kts | 323° |
| 2026-05-04 14:27 | 35.49732 | 75.41496 | 21856 ft | 357 kts | 323° |
| 2026-05-04 14:27 | 35.51706 | 75.39578 | 22076 ft | 369 kts | 322° |
| 2026-05-04 14:28 | 35.53733 | 75.37599 | 22287 ft | 381 kts | 322° |
| 2026-05-04 14:28 | 35.55816 | 75.35504 | 22491 ft | 393 kts | 319° |
| 2026-05-04 14:28 | 35.57669 | 75.32960 | 22685 ft | 406 kts | 306° |
| 2026-05-04 14:28 | 35.59054 | 75.29941 | 22870 ft | 418 kts | 294° |
| 2026-05-04 14:29 | 35.60887 | 75.22942 | 23246 ft | 440 kts | 288° |
| 2026-05-04 14:29 | 35.62648 | 75.15579 | 23584 ft | 458 kts | 288° |
| 2026-05-04 14:30 | 35.63556 | 75.11800 | 23758 ft | 466 kts | 288° |
| 2026-05-04 14:30 | 35.64471 | 75.08009 | 24059 ft | 470 kts | 288° |
| 2026-05-04 14:30 | 35.66342 | 75.00269 | 24810 ft | 472 kts | 288° |
| 2026-05-04 14:31 | 35.67275 | 74.96409 | 25301 ft | 470 kts | 288° |
| 2026-05-04 14:31 | 35.69112 | 74.88794 | 26313 ft | 464 kts | 288° |
| 2026-05-04 14:32 | 35.70633 | 74.81112 | 27195 ft | 464 kts | 276° |
| 2026-05-04 14:32 | 35.70470 | 74.77164 | 27614 ft | 466 kts | 262° |
| 2026-05-04 14:32 | 35.69551 | 74.73379 | 28028 ft | 468 kts | 249° |
| 2026-05-04 14:32 | 35.68105 | 74.69804 | 28479 ft | 467 kts | 244° |
| 2026-05-04 14:33 | 35.66179 | 74.66570 | 28840 ft | 473 kts | 228° |
| 2026-05-04 14:33 | 35.63717 | 74.63956 | 29214 ft | 473 kts | 223° |
| 2026-05-04 14:33 | 35.61171 | 74.61420 | 29291 ft | 472 kts | 222° |
| 2026-05-04 14:34 | 35.56068 | 74.56336 | 29303 ft | 477 kts | 223° |
| 2026-05-04 14:34 | 35.50922 | 74.51144 | 29306 ft | 479 kts | 223° |
| 2026-05-04 14:35 | 35.47100 | 74.47268 | 29306 ft | 479 kts | 223° |
| 2026-05-04 14:35 | 35.42028 | 74.42115 | 29305 ft | 470 kts | 223° |
| 2026-05-04 14:36 | 35.37030 | 74.37042 | 29305 ft | 469 kts | 223° |
| 2026-05-04 14:36 | 35.32017 | 74.31950 | 29304 ft | 469 kts | 222° |
| 2026-05-04 14:37 | 35.26993 | 74.26837 | 29304 ft | 470 kts | 222° |
| 2026-05-04 14:37 | 35.21976 | 74.21754 | 29305 ft | 470 kts | 222° |
| 2026-05-04 14:38 | 35.16962 | 74.16689 | 29307 ft | 470 kts | 222° |
| 2026-05-04 14:38 | 35.11927 | 74.11614 | 29305 ft | 470 kts | 222° |
| 2026-05-04 14:39 | 35.06892 | 74.06552 | 29304 ft | 470 kts | 222° |
| 2026-05-04 14:39 | 35.01843 | 74.01482 | 29305 ft | 470 kts | 222° |
| 2026-05-04 14:40 | 34.94278 | 73.93916 | 29305 ft | 471 kts | 223° |
| 2026-05-04 14:40 | 34.89215 | 73.88856 | 29303 ft | 472 kts | 224° |
| 2026-05-04 14:41 | 34.84140 | 73.83821 | 29305 ft | 474 kts | 224° |
| 2026-05-04 14:42 | 34.73962 | 73.73710 | 29304 ft | 474 kts | 224° |
| 2026-05-04 14:42 | 34.68894 | 73.68681 | 29307 ft | 473 kts | 224° |
| 2026-05-04 14:43 | 34.63796 | 73.63624 | 29306 ft | 474 kts | 224° |
| 2026-05-04 14:43 | 34.58684 | 73.58563 | 29308 ft | 474 kts | 224° |
| 2026-05-04 14:44 | 34.53604 | 73.53542 | 29303 ft | 473 kts | 224° |
| 2026-05-04 14:44 | 34.48552 | 73.48563 | 29290 ft | 464 kts | 224° |
| 2026-05-04 14:45 | 34.46046 | 73.46099 | 28863 ft | 460 kts | 224° |
| 2026-05-04 14:45 | 34.43592 | 73.43680 | 27736 ft | 465 kts | 224° |
| 2026-05-04 14:45 | 34.41913 | 73.42020 | 26755 ft | 473 kts | 224° |
| 2026-05-04 14:45 | 34.38518 | 73.38666 | 24681 ft | 488 kts | 223° |
| 2026-05-04 14:46 | 34.35866 | 73.36055 | 23113 ft | 496 kts | 222° |
| 2026-05-04 14:46 | 34.33223 | 73.33456 | 22011 ft | 492 kts | 221° |
| 2026-05-04 14:46 | 34.30588 | 73.30864 | 21197 ft | 483 kts | 221° |
| 2026-05-04 14:46 | 34.28032 | 73.28352 | 20437 ft | 475 kts | 221° |
| 2026-05-04 14:47 | 34.25483 | 73.25854 | 19610 ft | 469 kts | 221° |
| 2026-05-04 14:47 | 34.22971 | 73.23392 | 18765 ft | 463 kts | 220° |
| 2026-05-04 14:47 | 34.20507 | 73.20980 | 17944 ft | 458 kts | 220° |
| 2026-05-04 14:47 | 34.18064 | 73.18593 | 17137 ft | 453 kts | 220° |
| 2026-05-04 14:48 | 34.15622 | 73.16212 | 16341 ft | 447 kts | 220° |
| 2026-05-04 14:48 | 34.13224 | 73.13876 | 15573 ft | 441 kts | 220° |
| 2026-05-04 14:48 | 34.10867 | 73.11580 | 14809 ft | 435 kts | 220° |
| 2026-05-04 14:48 | 34.08543 | 73.09319 | 14142 ft | 427 kts | 219° |
| 2026-05-04 14:49 | 34.06259 | 73.07099 | 13644 ft | 415 kts | 219° |
| 2026-05-04 14:49 | 34.04057 | 73.04959 | 13155 ft | 405 kts | 219° |
| 2026-05-04 14:49 | 34.01887 | 73.02852 | 12651 ft | 396 kts | 219° |
| 2026-05-04 14:49 | 33.99776 | 73.00803 | 12153 ft | 387 kts | 219° |
| 2026-05-04 14:50 | 33.97715 | 72.98804 | 11658 ft | 380 kts | 219° |
| 2026-05-04 14:50 | 33.95661 | 72.96814 | 11153 ft | 373 kts | 219° |
| 2026-05-04 14:50 | 33.93672 | 72.94888 | 10659 ft | 367 kts | 220° |
| 2026-05-04 14:50 | 33.91693 | 72.92975 | 10158 ft | 360 kts | 220° |
| 2026-05-04 14:51 | 33.89767 | 72.91110 | 9661 ft | 355 kts | 220° |
| 2026-05-04 14:51 | 33.87864 | 72.89279 | 9166 ft | 349 kts | 220° |
| 2026-05-04 14:51 | 33.86000 | 72.87487 | 8671 ft | 344 kts | 220° |
| 2026-05-04 14:51 | 33.84141 | 72.85697 | 8245 ft | 336 kts | 220° |
| 2026-05-04 14:52 | 33.82343 | 72.83965 | 7848 ft | 329 kts | 220° |
| 2026-05-04 14:52 | 33.80598 | 72.82282 | 7453 ft | 322 kts | 220° |
| 2026-05-04 14:52 | 33.78892 | 72.80637 | 7054 ft | 305 kts | 220° |
| 2026-05-04 14:52 | 33.77293 | 72.79096 | 6652 ft | 283 kts | 220° |
| 2026-05-04 14:53 | 33.75802 | 72.77658 | 6254 ft | 270 kts | 220° |
| 2026-05-04 14:53 | 33.74356 | 72.76261 | 5860 ft | 271 kts | 219° |
| 2026-05-04 14:53 | 33.72888 | 72.74846 | 5459 ft | 270 kts | 219° |
| 2026-05-04 14:53 | 33.71430 | 72.73441 | 5061 ft | 269 kts | 219° |
| 2026-05-04 14:54 | 33.69979 | 72.72044 | 4663 ft | 268 kts | 219° |
| 2026-05-04 14:54 | 33.68520 | 72.70641 | 4261 ft | 267 kts | 219° |
| 2026-05-04 14:54 | 33.67089 | 72.69264 | 3865 ft | 266 kts | 218° |
| 2026-05-04 14:54 | 33.65655 | 72.67886 | 3468 ft | 265 kts | 218° |
| 2026-05-04 14:55 | 33.64207 | 72.66496 | 3078 ft | 263 kts | 218° |
| 2026-05-04 14:55 | 33.62822 | 72.65166 | 3017 ft | 251 kts | 218° |
| 2026-05-04 14:55 | 33.61486 | 72.63886 | 3007 ft | 236 kts | 218° |
| 2026-05-04 14:55 | 33.60152 | 72.62904 | 2984 ft | 220 kts | 193° |
| 2026-05-04 14:56 | 33.58713 | 72.63092 | 3002 ft | 208 kts | 153° |
| 2026-05-04 14:56 | 33.57702 | 72.64301 | 3009 ft | 214 kts | 118° |
| 2026-05-04 14:56 | 33.57329 | 72.65998 | 3016 ft | 204 kts | 101° |
| 2026-05-04 14:56 | 33.57126 | 72.67621 | 3006 ft | 187 kts | 102° |
| 2026-05-04 14:57 | 33.56929 | 72.69070 | 3002 ft | 167 kts | 103° |
| 2026-05-04 14:57 | 33.56734 | 72.70366 | 2978 ft | 148 kts | 104° |
| 2026-05-04 14:57 | 33.56544 | 72.71579 | 3005 ft | 148 kts | 104° |
| 2026-05-04 14:57 | 33.56352 | 72.72794 | 3008 ft | 148 kts | 104° |
| 2026-05-04 14:58 | 33.56159 | 72.74012 | 2883 ft | 148 kts | 104° |
| 2026-05-04 14:58 | 33.55969 | 72.75218 | 2693 ft | 147 kts | 104° |
| 2026-05-04 14:58 | 33.55780 | 72.76410 | 2504 ft | 146 kts | 105° |
| 2026-05-04 14:58 | 33.55653 | 72.77211 | 2375 ft | 145 kts | 105° |
| 2026-05-04 14:59 | 33.55404 | 72.78790 | 2121 ft | 145 kts | 104° |
| 2026-05-04 14:59 | 33.55218 | 72.79977 | 1922 ft | 144 kts | 104° |
| 2026-05-04 14:59 | 33.54894 | 72.82027 | 1770 ft | 65 kts | 99° |
| 2026-05-04 15:00 | 33.54859 | 72.82291 | 1769 ft | 22 kts | 99° |
| 2026-05-04 15:00 | 33.54910 | 72.82409 | 1769 ft | 17 kts | 16° |